sensor_id;sensor_type;location;lat;lon;timestamp;temperature;humidity
15638;DHT22;26604;53.596;10.042;2023-12-20T00:02:22;5.10;99.90
15638;DHT22;26604;53.596;10.042;2023-12-20T00:04:49;5.10;99.90
15638;DHT22;26604;53.596;10.042;2023-12-20T00:07:16;5.10;99.90
15638;DHT22;26604;53.596;10.042;2023-12-20T00:09:43;4.90;99.90
15638;DHT22;26604;53.596;10.042;2023-12-20T00:12:11;5.00;99.90
15638;DHT22;26604;53.596;10.042;2023-12-20T00:14:38;4.90;99.90
15638;DHT22;26604;53.596;10.042;2023-12-20T00:17:05;4.90;99.90
15638;DHT22;26604;53.596;10.042;2023-12-20T00:19:32;4.90;99.90
15638;DHT22;26604;53.596;10.042;2023-12-20T00:21:58;4.80;99.90
15638;DHT22;26604;53.596;10.042;2023-12-20T00:24:26;4.80;99.90
15638;DHT22;26604;53.596;10.042;2023-12-20T00:26:53;4.70;99.90
15638;DHT22;26604;53.596;10.042;2023-12-20T00:29:21;4.70;99.90
15638;DHT22;26604;53.596;10.042;2023-12-20T00:31:48;4.80;99.90
15638;DHT22;26604;53.596;10.042;2023-12-20T00:34:14;4.90;99.90
15638;DHT22;26604;53.596;10.042;2023-12-20T00:36:41;5.10;99.90
15638;DHT22;26604;53.596;10.042;2023-12-20T00:39:08;5.10;99.90
15638;DHT22;26604;53.596;10.042;2023-12-20T00:41:35;5.10;99.90
15638;DHT22;26604;53.596;10.042;2023-12-20T00:44:02;5.20;99.90
15638;DHT22;26604;53.596;10.042;2023-12-20T00:46:31;5.20;99.90
15638;DHT22;26604;53.596;10.042;2023-12-20T00:48:57;5.20;99.90
15638;DHT22;26604;53.596;10.042;2023-12-20T00:51:24;5.20;99.90
15638;DHT22;26604;53.596;10.042;2023-12-20T00:53:51;5.30;99.90
15638;DHT22;26604;53.596;10.042;2023-12-20T00:56:20;5.40;99.90
15638;DHT22;26604;53.596;10.042;2023-12-20T00:58:47;5.50;99.90
15638;DHT22;26604;53.596;10.042;2023-12-20T01:01:14;5.50;99.90
15638;DHT22;26604;53.596;10.042;2023-12-20T01:03:43;5.60;99.90
15638;DHT22;26604;53.596;10.042;2023-12-20T01:06:09;5.60;99.90
15638;DHT22;26604;53.596;10.042;2023-12-20T01:08:37;5.60;99.90
15638;DHT22;26604;53.596;10.042;2023-12-20T01:11:04;5.60;99.90
15638;DHT22;26604;53.596;10.042;2023-12-20T01:13:31;5.50;99.90
15638;DHT22;26604;53.596;10.042;2023-12-20T01:15:58;5.40;99.90
15638;DHT22;26604;53.596;10.042;2023-12-20T01:18:25;5.30;99.90
15638;DHT22;26604;53.596;10.042;2023-12-20T01:20:53;5.30;99.90
15638;DHT22;26604;53.596;10.042;2023-12-20T01:23:20;5.20;99.90
15638;DHT22;26604;53.596;10.042;2023-12-20T01:25:46;5.10;99.90
15638;DHT22;26604;53.596;10.042;2023-12-20T01:28:13;5.00;99.90
15638;DHT22;26604;53.596;10.042;2023-12-20T01:30:40;5.00;99.90
15638;DHT22;26604;53.596;10.042;2023-12-20T01:33:07;4.90;99.90
15638;DHT22;26604;53.596;10.042;2023-12-20T01:35:33;4.80;99.90
15638;DHT22;26604;53.596;10.042;2023-12-20T01:38:02;4.80;99.90
15638;DHT22;26604;53.596;10.042;2023-12-20T01:40:29;4.80;99.90
15638;DHT22;26604;53.596;10.042;2023-12-20T01:42:59;4.70;99.90
15638;DHT22;26604;53.596;10.042;2023-12-20T01:45:26;4.70;99.90
15638;DHT22;26604;53.596;10.042;2023-12-20T01:47:53;4.70;99.90
15638;DHT22;26604;53.596;10.042;2023-12-20T01:50:21;4.60;99.90
15638;DHT22;26604;53.596;10.042;2023-12-20T01:52:48;4.70;99.90
15638;DHT22;26604;53.596;10.042;2023-12-20T01:55:19;4.80;99.90
15638;DHT22;26604;53.596;10.042;2023-12-20T01:57:47;4.80;99.90
15638;DHT22;26604;53.596;10.042;2023-12-20T02:00:14;4.90;99.90
15638;DHT22;26604;53.596;10.042;2023-12-20T02:02:42;5.10;99.90
15638;DHT22;26604;53.596;10.042;2023-12-20T02:05:10;5.20;99.90
15638;DHT22;26604;53.596;10.042;2023-12-20T02:07:37;5.20;99.90
15638;DHT22;26604;53.596;10.042;2023-12-20T02:10:04;5.30;99.90
15638;DHT22;26604;53.596;10.042;2023-12-20T02:12:33;5.30;99.90
15638;DHT22;26604;53.596;10.042;2023-12-20T02:15:00;5.30;99.90
15638;DHT22;26604;53.596;10.042;2023-12-20T02:17:27;5.30;99.90
15638;DHT22;26604;53.596;10.042;2023-12-20T02:19:54;5.20;99.90
15638;DHT22;26604;53.596;10.042;2023-12-20T02:22:22;5.20;99.90
15638;DHT22;26604;53.596;10.042;2023-12-20T02:24:49;5.20;99.90
15638;DHT22;26604;53.596;10.042;2023-12-20T02:27:18;5.20;99.90
15638;DHT22;26604;53.596;10.042;2023-12-20T02:29:47;5.10;99.90
15638;DHT22;26604;53.596;10.042;2023-12-20T02:32:14;5.20;99.90
15638;DHT22;26604;53.596;10.042;2023-12-20T02:34:41;5.20;99.90
15638;DHT22;26604;53.596;10.042;2023-12-20T02:37:08;5.30;99.90
15638;DHT22;26604;53.596;10.042;2023-12-20T02:39:36;5.40;99.90
15638;DHT22;26604;53.596;10.042;2023-12-20T02:42:03;5.50;99.90
15638;DHT22;26604;53.596;10.042;2023-12-20T02:44:30;5.60;99.90
15638;DHT22;26604;53.596;10.042;2023-12-20T02:46:57;5.60;99.90
15638;DHT22;26604;53.596;10.042;2023-12-20T02:49:24;5.60;99.90
15638;DHT22;26604;53.596;10.042;2023-12-20T02:51:50;5.70;99.90
15638;DHT22;26604;53.596;10.042;2023-12-20T02:54:17;5.70;99.90
15638;DHT22;26604;53.596;10.042;2023-12-20T02:56:45;5.80;99.90
15638;DHT22;26604;53.596;10.042;2023-12-20T02:59:12;5.90;99.90
15638;DHT22;26604;53.596;10.042;2023-12-20T03:01:42;5.90;99.90
15638;DHT22;26604;53.596;10.042;2023-12-20T03:04:09;5.90;99.90
15638;DHT22;26604;53.596;10.042;2023-12-20T03:06:36;5.90;99.90
15638;DHT22;26604;53.596;10.042;2023-12-20T03:09:03;5.90;99.90
15638;DHT22;26604;53.596;10.042;2023-12-20T03:11:30;6.00;99.90
15638;DHT22;26604;53.596;10.042;2023-12-20T03:13:58;6.20;99.90
15638;DHT22;26604;53.596;10.042;2023-12-20T03:16:25;5.90;99.90
15638;DHT22;26604;53.596;10.042;2023-12-20T03:18:52;5.90;99.90
15638;DHT22;26604;53.596;10.042;2023-12-20T03:21:19;5.90;99.90
15638;DHT22;26604;53.596;10.042;2023-12-20T03:23:45;5.90;99.90
15638;DHT22;26604;53.596;10.042;2023-12-20T03:26:12;5.90;99.90
15638;DHT22;26604;53.596;10.042;2023-12-20T03:28:39;5.90;99.90
15638;DHT22;26604;53.596;10.042;2023-12-20T03:31:09;6.00;99.90
15638;DHT22;26604;53.596;10.042;2023-12-20T03:33:36;6.00;99.90
15638;DHT22;26604;53.596;10.042;2023-12-20T03:36:03;6.00;99.90
15638;DHT22;26604;53.596;10.042;2023-12-20T03:38:30;6.00;99.90
15638;DHT22;26604;53.596;10.042;2023-12-20T03:40:57;6.00;99.90
15638;DHT22;26604;53.596;10.042;2023-12-20T03:43:23;6.00;99.90
15638;DHT22;26604;53.596;10.042;2023-12-20T03:45:50;6.00;99.90
15638;DHT22;26604;53.596;10.042;2023-12-20T03:48:18;6.00;99.90
15638;DHT22;26604;53.596;10.042;2023-12-20T03:50:45;6.00;99.90
15638;DHT22;26604;53.596;10.042;2023-12-20T03:53:12;6.00;99.90
15638;DHT22;26604;53.596;10.042;2023-12-20T03:55:39;6.00;99.90
15638;DHT22;26604;53.596;10.042;2023-12-20T03:58:06;6.10;99.90
15638;DHT22;26604;53.596;10.042;2023-12-20T04:00:33;6.10;99.90
15638;DHT22;26604;53.596;10.042;2023-12-20T04:03:00;6.00;99.90
15638;DHT22;26604;53.596;10.042;2023-12-20T04:05:28;6.00;99.90
15638;DHT22;26604;53.596;10.042;2023-12-20T04:07:55;6.10;99.90
15638;DHT22;26604;53.596;10.042;2023-12-20T04:10:21;6.10;99.90
15638;DHT22;26604;53.596;10.042;2023-12-20T04:12:48;6.10;99.90
15638;DHT22;26604;53.596;10.042;2023-12-20T04:15:15;6.20;99.90
15638;DHT22;26604;53.596;10.042;2023-12-20T04:17:42;6.20;99.90
15638;DHT22;26604;53.596;10.042;2023-12-20T04:20:09;6.10;99.90
15638;DHT22;26604;53.596;10.042;2023-12-20T04:22:37;6.20;99.90
15638;DHT22;26604;53.596;10.042;2023-12-20T04:25:05;6.20;99.90
15638;DHT22;26604;53.596;10.042;2023-12-20T04:27:31;6.20;1.00
15638;DHT22;26604;53.596;10.042;2023-12-20T04:29:58;6.20;1.00
15638;DHT22;26604;53.596;10.042;2023-12-20T04:32:25;6.10;99.90
15638;DHT22;26604;53.596;10.042;2023-12-20T04:34:52;6.10;1.00
15638;DHT22;26604;53.596;10.042;2023-12-20T04:37:19;6.10;99.90
15638;DHT22;26604;53.596;10.042;2023-12-20T04:39:47;6.20;99.90
15638;DHT22;26604;53.596;10.042;2023-12-20T04:42:14;6.20;95.90
15638;DHT22;26604;53.596;10.042;2023-12-20T04:44:40;6.20;99.90
15638;DHT22;26604;53.596;10.042;2023-12-20T04:47:09;6.10;99.90
15638;DHT22;26604;53.596;10.042;2023-12-20T04:49:36;6.10;94.80
15638;DHT22;26604;53.596;10.042;2023-12-20T04:52:03;6.10;99.90
15638;DHT22;26604;53.596;10.042;2023-12-20T04:54:31;6.20;99.90
15638;DHT22;26604;53.596;10.042;2023-12-20T04:56:59;6.20;99.90
15638;DHT22;26604;53.596;10.042;2023-12-20T04:59:26;6.10;99.90
15638;DHT22;26604;53.596;10.042;2023-12-20T05:01:53;6.10;1.00
15638;DHT22;26604;53.596;10.042;2023-12-20T05:04:19;6.20;99.90
15638;DHT22;26604;53.596;10.042;2023-12-20T05:06:47;6.20;29.00
15638;DHT22;26604;53.596;10.042;2023-12-20T05:09:15;6.20;99.90
15638;DHT22;26604;53.596;10.042;2023-12-20T05:11:42;6.20;99.90
15638;DHT22;26604;53.596;10.042;2023-12-20T05:14:10;6.20;1.00
15638;DHT22;26604;53.596;10.042;2023-12-20T05:16:37;6.30;99.90
15638;DHT22;26604;53.596;10.042;2023-12-20T05:19:04;6.30;99.90
15638;DHT22;26604;53.596;10.042;2023-12-20T05:21:32;6.20;99.90
15638;DHT22;26604;53.596;10.042;2023-12-20T05:23:59;6.30;99.90
15638;DHT22;26604;53.596;10.042;2023-12-20T05:26:26;6.40;99.90
15638;DHT22;26604;53.596;10.042;2023-12-20T05:28:55;6.40;99.90
15638;DHT22;26604;53.596;10.042;2023-12-20T05:31:23;6.40;99.90
15638;DHT22;26604;53.596;10.042;2023-12-20T05:33:50;6.40;99.90
15638;DHT22;26604;53.596;10.042;2023-12-20T05:36:16;6.40;99.90
15638;DHT22;26604;53.596;10.042;2023-12-20T05:38:43;6.40;99.90
15638;DHT22;26604;53.596;10.042;2023-12-20T05:41:10;6.40;99.90
15638;DHT22;26604;53.596;10.042;2023-12-20T05:43:37;6.40;99.90
15638;DHT22;26604;53.596;10.042;2023-12-20T05:46:04;6.50;99.90
15638;DHT22;26604;53.596;10.042;2023-12-20T05:48:32;6.50;46.80
15638;DHT22;26604;53.596;10.042;2023-12-20T05:50:58;6.50;99.90
15638;DHT22;26604;53.596;10.042;2023-12-20T05:53:25;6.60;99.90
15638;DHT22;26604;53.596;10.042;2023-12-20T05:55:52;6.50;99.90
15638;DHT22;26604;53.596;10.042;2023-12-20T05:58:19;6.50;99.90
15638;DHT22;26604;53.596;10.042;2023-12-20T06:00:46;6.40;99.90
15638;DHT22;26604;53.596;10.042;2023-12-20T06:03:14;6.50;99.90
15638;DHT22;26604;53.596;10.042;2023-12-20T06:05:42;6.40;99.90
15638;DHT22;26604;53.596;10.042;2023-12-20T06:08:09;6.40;99.90
15638;DHT22;26604;53.596;10.042;2023-12-20T06:10:36;6.40;99.90
15638;DHT22;26604;53.596;10.042;2023-12-20T06:13:03;6.40;99.90
15638;DHT22;26604;53.596;10.042;2023-12-20T06:15:32;6.40;99.90
15638;DHT22;26604;53.596;10.042;2023-12-20T06:17:59;6.50;99.90
15638;DHT22;26604;53.596;10.042;2023-12-20T06:20:26;6.50;99.90
15638;DHT22;26604;53.596;10.042;2023-12-20T06:22:54;6.50;99.90
15638;DHT22;26604;53.596;10.042;2023-12-20T06:25:21;6.40;9.70
15638;DHT22;26604;53.596;10.042;2023-12-20T06:27:48;6.40;99.90
15638;DHT22;26604;53.596;10.042;2023-12-20T06:30:15;6.30;1.00
15638;DHT22;26604;53.596;10.042;2023-12-20T06:32:43;6.30;99.90
15638;DHT22;26604;53.596;10.042;2023-12-20T06:35:12;6.30;99.90
15638;DHT22;26604;53.596;10.042;2023-12-20T06:37:39;6.30;99.90
15638;DHT22;26604;53.596;10.042;2023-12-20T06:40:10;6.30;99.90
15638;DHT22;26604;53.596;10.042;2023-12-20T06:42:37;6.40;1.00
15638;DHT22;26604;53.596;10.042;2023-12-20T06:45:04;6.40;99.90
15638;DHT22;26604;53.596;10.042;2023-12-20T06:47:31;6.40;1.00
15638;DHT22;26604;53.596;10.042;2023-12-20T06:49:58;6.50;1.00
15638;DHT22;26604;53.596;10.042;2023-12-20T06:52:25;6.50;1.00
15638;DHT22;26604;53.596;10.042;2023-12-20T06:54:52;6.40;1.00
15638;DHT22;26604;53.596;10.042;2023-12-20T06:57:20;6.50;1.00
15638;DHT22;26604;53.596;10.042;2023-12-20T06:59:47;6.50;1.00
15638;DHT22;26604;53.596;10.042;2023-12-20T07:02:13;6.40;17.00
15638;DHT22;26604;53.596;10.042;2023-12-20T07:04:41;6.50;99.90
15638;DHT22;26604;53.596;10.042;2023-12-20T07:07:07;6.50;99.90
15638;DHT22;26604;53.596;10.042;2023-12-20T07:09:34;6.50;1.00
15638;DHT22;26604;53.596;10.042;2023-12-20T07:12:01;6.50;99.90
15638;DHT22;26604;53.596;10.042;2023-12-20T07:14:29;6.50;1.00
15638;DHT22;26604;53.596;10.042;2023-12-20T07:16:56;6.50;99.90
15638;DHT22;26604;53.596;10.042;2023-12-20T07:19:23;6.50;99.90
15638;DHT22;26604;53.596;10.042;2023-12-20T07:21:50;6.50;99.90
15638;DHT22;26604;53.596;10.042;2023-12-20T07:24:17;6.50;1.00
15638;DHT22;26604;53.596;10.042;2023-12-20T07:26:44;6.50;1.00
15638;DHT22;26604;53.596;10.042;2023-12-20T07:29:10;6.50;1.00
15638;DHT22;26604;53.596;10.042;2023-12-20T07:31:39;6.50;1.00
15638;DHT22;26604;53.596;10.042;2023-12-20T07:34:05;6.60;56.10
15638;DHT22;26604;53.596;10.042;2023-12-20T07:36:32;6.60;1.00
15638;DHT22;26604;53.596;10.042;2023-12-20T07:38:59;6.60;1.00
15638;DHT22;26604;53.596;10.042;2023-12-20T07:41:26;6.70;1.00
15638;DHT22;26604;53.596;10.042;2023-12-20T07:43:53;6.70;46.10
15638;DHT22;26604;53.596;10.042;2023-12-20T07:46:20;6.70;87.10
15638;DHT22;26604;53.596;10.042;2023-12-20T07:48:50;6.80;48.90
15638;DHT22;26604;53.596;10.042;2023-12-20T07:51:17;6.80;28.90
15638;DHT22;26604;53.596;10.042;2023-12-20T07:53:44;6.80;13.80
15638;DHT22;26604;53.596;10.042;2023-12-20T07:56:15;6.70;84.50
15638;DHT22;26604;53.596;10.042;2023-12-20T07:58:42;6.90;99.90
15638;DHT22;26604;53.596;10.042;2023-12-20T08:01:10;6.90;1.00
15638;DHT22;26604;53.596;10.042;2023-12-20T08:03:36;6.90;1.00
15638;DHT22;26604;53.596;10.042;2023-12-20T08:06:05;6.90;1.00
15638;DHT22;26604;53.596;10.042;2023-12-20T08:08:32;7.00;1.00
15638;DHT22;26604;53.596;10.042;2023-12-20T08:10:58;7.00;1.00
15638;DHT22;26604;53.596;10.042;2023-12-20T08:13:26;7.10;16.40
15638;DHT22;26604;53.596;10.042;2023-12-20T08:15:53;7.10;99.90
15638;DHT22;26604;53.596;10.042;2023-12-20T08:18:21;7.20;1.00
15638;DHT22;26604;53.596;10.042;2023-12-20T08:20:48;7.20;1.00
15638;DHT22;26604;53.596;10.042;2023-12-20T08:23:19;7.20;1.00
15638;DHT22;26604;53.596;10.042;2023-12-20T08:25:47;7.10;10.90
15638;DHT22;26604;53.596;10.042;2023-12-20T08:28:14;7.20;1.00
15638;DHT22;26604;53.596;10.042;2023-12-20T08:30:41;7.20;99.90
15638;DHT22;26604;53.596;10.042;2023-12-20T08:33:08;7.20;99.90
15638;DHT22;26604;53.596;10.042;2023-12-20T08:35:38;7.20;99.90
15638;DHT22;26604;53.596;10.042;2023-12-20T08:38:05;7.20;99.90
15638;DHT22;26604;53.596;10.042;2023-12-20T08:40:33;7.20;99.90
15638;DHT22;26604;53.596;10.042;2023-12-20T08:43:00;7.30;99.90
15638;DHT22;26604;53.596;10.042;2023-12-20T08:45:27;7.40;1.00
15638;DHT22;26604;53.596;10.042;2023-12-20T08:47:54;7.50;99.90
15638;DHT22;26604;53.596;10.042;2023-12-20T08:50:21;7.60;99.90
15638;DHT22;26604;53.596;10.042;2023-12-20T08:52:47;7.60;99.90
15638;DHT22;26604;53.596;10.042;2023-12-20T08:55:14;7.70;1.00
15638;DHT22;26604;53.596;10.042;2023-12-20T08:57:44;7.70;36.80
15638;DHT22;26604;53.596;10.042;2023-12-20T09:00:12;7.70;19.50
15638;DHT22;26604;53.596;10.042;2023-12-20T09:02:39;7.60;1.00
15638;DHT22;26604;53.596;10.042;2023-12-20T09:05:07;7.70;99.90
15638;DHT22;26604;53.596;10.042;2023-12-20T09:07:34;7.50;60.30
15638;DHT22;26604;53.596;10.042;2023-12-20T09:10:00;7.50;5.70
15638;DHT22;26604;53.596;10.042;2023-12-20T09:12:28;7.40;1.00
15638;DHT22;26604;53.596;10.042;2023-12-20T09:14:56;7.30;8.20
15638;DHT22;26604;53.596;10.042;2023-12-20T09:17:23;7.30;99.90
15638;DHT22;26604;53.596;10.042;2023-12-20T09:19:49;7.30;77.50
15638;DHT22;26604;53.596;10.042;2023-12-20T09:22:18;7.20;99.90
15638;DHT22;26604;53.596;10.042;2023-12-20T09:24:44;7.10;1.00
15638;DHT22;26604;53.596;10.042;2023-12-20T09:27:11;7.00;99.90
15638;DHT22;26604;53.596;10.042;2023-12-20T09:29:38;7.00;99.90
15638;DHT22;26604;53.596;10.042;2023-12-20T09:32:06;6.90;99.90
15638;DHT22;26604;53.596;10.042;2023-12-20T09:34:33;6.80;1.00
15638;DHT22;26604;53.596;10.042;2023-12-20T09:37:00;6.70;99.90
15638;DHT22;26604;53.596;10.042;2023-12-20T09:39:28;6.80;99.90
15638;DHT22;26604;53.596;10.042;2023-12-20T09:42:01;6.80;99.90
15638;DHT22;26604;53.596;10.042;2023-12-20T09:44:28;6.80;99.90
15638;DHT22;26604;53.596;10.042;2023-12-20T09:46:56;6.80;99.90
15638;DHT22;26604;53.596;10.042;2023-12-20T09:49:25;6.80;99.90
15638;DHT22;26604;53.596;10.042;2023-12-20T09:51:54;6.90;12.40
15638;DHT22;26604;53.596;10.042;2023-12-20T09:54:23;6.90;1.00
15638;DHT22;26604;53.596;10.042;2023-12-20T09:56:50;6.80;99.90
15638;DHT22;26604;53.596;10.042;2023-12-20T09:59:17;6.70;21.30
15638;DHT22;26604;53.596;10.042;2023-12-20T10:01:44;6.70;99.90
15638;DHT22;26604;53.596;10.042;2023-12-20T10:04:12;6.70;99.90
15638;DHT22;26604;53.596;10.042;2023-12-20T10:06:41;6.60;99.90
15638;DHT22;26604;53.596;10.042;2023-12-20T10:09:09;6.50;99.90
15638;DHT22;26604;53.596;10.042;2023-12-20T10:11:36;6.40;1.00
15638;DHT22;26604;53.596;10.042;2023-12-20T10:14:04;6.40;99.90
15638;DHT22;26604;53.596;10.042;2023-12-20T10:16:31;6.40;99.90
15638;DHT22;26604;53.596;10.042;2023-12-20T10:19:00;6.30;99.90
15638;DHT22;26604;53.596;10.042;2023-12-20T10:21:27;6.30;99.90
15638;DHT22;26604;53.596;10.042;2023-12-20T10:23:56;6.30;99.90
15638;DHT22;26604;53.596;10.042;2023-12-20T10:26:25;6.30;99.90
15638;DHT22;26604;53.596;10.042;2023-12-20T10:28:53;6.30;1.00
15638;DHT22;26604;53.596;10.042;2023-12-20T10:31:26;6.40;99.90
15638;DHT22;26604;53.596;10.042;2023-12-20T10:33:55;6.50;99.90
15638;DHT22;26604;53.596;10.042;2023-12-20T10:36:23;6.50;99.90
15638;DHT22;26604;53.596;10.042;2023-12-20T10:38:52;6.50;99.90
15638;DHT22;26604;53.596;10.042;2023-12-20T10:41:24;6.60;99.90
15638;DHT22;26604;53.596;10.042;2023-12-20T10:43:52;6.60;99.90
15638;DHT22;26604;53.596;10.042;2023-12-20T10:46:19;6.60;82.40
15638;DHT22;26604;53.596;10.042;2023-12-20T10:48:47;6.60;99.90
15638;DHT22;26604;53.596;10.042;2023-12-20T10:51:17;6.60;36.40
15638;DHT22;26604;53.596;10.042;2023-12-20T10:53:47;6.40;99.90
15638;DHT22;26604;53.596;10.042;2023-12-20T10:56:17;6.40;99.90
15638;DHT22;26604;53.596;10.042;2023-12-20T10:58:46;6.30;1.00
15638;DHT22;26604;53.596;10.042;2023-12-20T11:01:14;6.30;99.90
15638;DHT22;26604;53.596;10.042;2023-12-20T11:03:44;6.30;99.90
15638;DHT22;26604;53.596;10.042;2023-12-20T11:06:23;6.40;99.90
15638;DHT22;26604;53.596;10.042;2023-12-20T11:08:57;6.40;58.00
15638;DHT22;26604;53.596;10.042;2023-12-20T11:11:37;6.40;1.00
15638;DHT22;26604;53.596;10.042;2023-12-20T11:14:11;6.40;1.00
15638;DHT22;26604;53.596;10.042;2023-12-20T11:16:41;6.40;99.90
15638;DHT22;26604;53.596;10.042;2023-12-20T11:19:08;6.30;99.90
15638;DHT22;26604;53.596;10.042;2023-12-20T11:21:35;6.30;99.90
15638;DHT22;26604;53.596;10.042;2023-12-20T11:24:02;6.10;99.90
15638;DHT22;26604;53.596;10.042;2023-12-20T11:26:30;5.90;99.90
15638;DHT22;26604;53.596;10.042;2023-12-20T11:29:32;5.90;99.90
15638;DHT22;26604;53.596;10.042;2023-12-20T11:32:00;5.60;99.90
15638;DHT22;26604;53.596;10.042;2023-12-20T11:34:28;5.40;99.90
15638;DHT22;26604;53.596;10.042;2023-12-20T11:36:59;5.20;99.90
15638;DHT22;26604;53.596;10.042;2023-12-20T11:39:26;5.10;99.90
15638;DHT22;26604;53.596;10.042;2023-12-20T11:41:55;5.10;99.90
15638;DHT22;26604;53.596;10.042;2023-12-20T11:44:23;5.10;99.90
15638;DHT22;26604;53.596;10.042;2023-12-20T11:46:53;5.10;99.90
15638;DHT22;26604;53.596;10.042;2023-12-20T11:49:23;5.10;99.90
15638;DHT22;26604;53.596;10.042;2023-12-20T11:51:50;5.10;99.90
15638;DHT22;26604;53.596;10.042;2023-12-20T11:54:18;5.00;99.90
15638;DHT22;26604;53.596;10.042;2023-12-20T11:56:45;5.00;99.90
15638;DHT22;26604;53.596;10.042;2023-12-20T11:59:12;5.10;22.20
15638;DHT22;26604;53.596;10.042;2023-12-20T12:01:39;5.20;99.90
15638;DHT22;26604;53.596;10.042;2023-12-20T12:04:07;5.40;99.90
15638;DHT22;26604;53.596;10.042;2023-12-20T12:06:34;5.60;99.90
15638;DHT22;26604;53.596;10.042;2023-12-20T12:09:01;5.60;99.90
15638;DHT22;26604;53.596;10.042;2023-12-20T12:11:29;5.70;99.90
15638;DHT22;26604;53.596;10.042;2023-12-20T12:13:56;5.70;99.90
15638;DHT22;26604;53.596;10.042;2023-12-20T12:16:23;5.70;99.90
15638;DHT22;26604;53.596;10.042;2023-12-20T12:18:56;5.70;99.90
15638;DHT22;26604;53.596;10.042;2023-12-20T12:21:24;5.70;99.90
15638;DHT22;26604;53.596;10.042;2023-12-20T12:23:51;5.70;99.90
15638;DHT22;26604;53.596;10.042;2023-12-20T12:26:18;5.80;99.90
15638;DHT22;26604;53.596;10.042;2023-12-20T12:28:45;5.80;99.90
15638;DHT22;26604;53.596;10.042;2023-12-20T12:31:16;5.90;99.90
15638;DHT22;26604;53.596;10.042;2023-12-20T12:33:43;6.10;99.90
15638;DHT22;26604;53.596;10.042;2023-12-20T12:36:10;6.20;99.90
15638;DHT22;26604;53.596;10.042;2023-12-20T12:38:39;6.40;99.90
15638;DHT22;26604;53.596;10.042;2023-12-20T12:41:06;6.50;99.90
15638;DHT22;26604;53.596;10.042;2023-12-20T12:43:33;6.70;99.90
15638;DHT22;26604;53.596;10.042;2023-12-20T12:46:00;6.90;99.90
15638;DHT22;26604;53.596;10.042;2023-12-20T12:48:27;7.00;99.90
15638;DHT22;26604;53.596;10.042;2023-12-20T12:50:54;7.00;99.90
15638;DHT22;26604;53.596;10.042;2023-12-20T12:53:24;7.00;99.90
15638;DHT22;26604;53.596;10.042;2023-12-20T12:55:53;7.00;99.90
15638;DHT22;26604;53.596;10.042;2023-12-20T12:58:21;7.00;99.90
15638;DHT22;26604;53.596;10.042;2023-12-20T13:00:48;6.90;99.90
15638;DHT22;26604;53.596;10.042;2023-12-20T13:03:14;6.80;99.90
15638;DHT22;26604;53.596;10.042;2023-12-20T13:05:42;6.80;99.90
15638;DHT22;26604;53.596;10.042;2023-12-20T13:08:09;6.70;99.90
15638;DHT22;26604;53.596;10.042;2023-12-20T13:10:37;6.70;87.40
15638;DHT22;26604;53.596;10.042;2023-12-20T13:13:05;6.70;99.90
15638;DHT22;26604;53.596;10.042;2023-12-20T13:15:32;6.70;99.90
15638;DHT22;26604;53.596;10.042;2023-12-20T13:17:59;6.80;47.40
15638;DHT22;26604;53.596;10.042;2023-12-20T13:20:26;6.80;1.00
15638;DHT22;26604;53.596;10.042;2023-12-20T13:22:53;6.80;1.00
15638;DHT22;26604;53.596;10.042;2023-12-20T13:25:20;6.70;1.00
15638;DHT22;26604;53.596;10.042;2023-12-20T13:27:47;6.70;1.00
15638;DHT22;26604;53.596;10.042;2023-12-20T13:30:16;6.70;1.00
15638;DHT22;26604;53.596;10.042;2023-12-20T13:32:44;6.60;1.00
15638;DHT22;26604;53.596;10.042;2023-12-20T13:35:11;6.70;1.00
15638;DHT22;26604;53.596;10.042;2023-12-20T13:37:38;6.60;99.90
15638;DHT22;26604;53.596;10.042;2023-12-20T13:40:06;6.60;1.00
15638;DHT22;26604;53.596;10.042;2023-12-20T13:42:33;6.60;1.00
15638;DHT22;26604;53.596;10.042;2023-12-20T13:45:01;6.60;1.00
15638;DHT22;26604;53.596;10.042;2023-12-20T13:47:35;6.50;1.00
15638;DHT22;26604;53.596;10.042;2023-12-20T13:50:02;6.40;1.00
15638;DHT22;26604;53.596;10.042;2023-12-20T13:52:30;6.30;1.00
15638;DHT22;26604;53.596;10.042;2023-12-20T13:54:56;6.30;1.00
15638;DHT22;26604;53.596;10.042;2023-12-20T13:57:23;6.20;1.00
15638;DHT22;26604;53.596;10.042;2023-12-20T13:59:50;6.20;99.90
15638;DHT22;26604;53.596;10.042;2023-12-20T14:02:17;6.10;1.00
15638;DHT22;26604;53.596;10.042;2023-12-20T14:04:45;6.20;1.00
15638;DHT22;26604;53.596;10.042;2023-12-20T14:07:12;6.20;1.00
15638;DHT22;26604;53.596;10.042;2023-12-20T14:09:39;6.20;99.90
15638;DHT22;26604;53.596;10.042;2023-12-20T14:12:10;6.20;16.50
15638;DHT22;26604;53.596;10.042;2023-12-20T14:14:37;6.20;1.00
15638;DHT22;26604;53.596;10.042;2023-12-20T14:17:04;6.10;1.00
15638;DHT22;26604;53.596;10.042;2023-12-20T14:19:32;6.10;99.90
15638;DHT22;26604;53.596;10.042;2023-12-20T14:22:00;6.10;48.00
15638;DHT22;26604;53.596;10.042;2023-12-20T14:24:27;6.00;1.00
15638;DHT22;26604;53.596;10.042;2023-12-20T14:26:54;6.10;1.00
15638;DHT22;26604;53.596;10.042;2023-12-20T14:29:21;6.10;1.00
15638;DHT22;26604;53.596;10.042;2023-12-20T14:31:48;6.10;1.00
15638;DHT22;26604;53.596;10.042;2023-12-20T14:34:15;6.00;1.00
15638;DHT22;26604;53.596;10.042;2023-12-20T14:36:42;6.00;1.00
15638;DHT22;26604;53.596;10.042;2023-12-20T14:39:10;5.90;1.00
15638;DHT22;26604;53.596;10.042;2023-12-20T14:41:38;6.00;1.00
15638;DHT22;26604;53.596;10.042;2023-12-20T14:44:05;5.90;1.00
15638;DHT22;26604;53.596;10.042;2023-12-20T14:46:32;5.90;99.90
15638;DHT22;26604;53.596;10.042;2023-12-20T14:48:59;5.90;1.00
15638;DHT22;26604;53.596;10.042;2023-12-20T14:51:27;5.90;1.00
15638;DHT22;26604;53.596;10.042;2023-12-20T14:53:54;6.10;99.90
15638;DHT22;26604;53.596;10.042;2023-12-20T14:56:23;6.10;1.00
15638;DHT22;26604;53.596;10.042;2023-12-20T14:58:51;6.10;1.00
15638;DHT22;26604;53.596;10.042;2023-12-20T15:01:18;6.20;99.90
15638;DHT22;26604;53.596;10.042;2023-12-20T15:03:47;6.30;99.90
15638;DHT22;26604;53.596;10.042;2023-12-20T15:06:14;6.30;99.90
15638;DHT22;26604;53.596;10.042;2023-12-20T15:08:40;6.40;99.90
15638;DHT22;26604;53.596;10.042;2023-12-20T15:11:07;6.30;99.90
15638;DHT22;26604;53.596;10.042;2023-12-20T15:13:36;6.30;1.00
15638;DHT22;26604;53.596;10.042;2023-12-20T15:16:03;6.30;99.90
15638;DHT22;26604;53.596;10.042;2023-12-20T15:18:30;6.30;1.00
15638;DHT22;26604;53.596;10.042;2023-12-20T15:20:57;6.30;1.00
15638;DHT22;26604;53.596;10.042;2023-12-20T15:23:25;6.20;99.90
15638;DHT22;26604;53.596;10.042;2023-12-20T15:25:54;6.30;99.90
15638;DHT22;26604;53.596;10.042;2023-12-20T15:28:21;6.30;99.90
15638;DHT22;26604;53.596;10.042;2023-12-20T15:30:49;6.20;1.00
15638;DHT22;26604;53.596;10.042;2023-12-20T15:33:16;6.10;47.60
15638;DHT22;26604;53.596;10.042;2023-12-20T15:35:42;6.10;99.90
15638;DHT22;26604;53.596;10.042;2023-12-20T15:38:08;6.10;99.90